createdAt,value
2023-02-03T00:02:51.890Z,2.70
2023-02-03T00:07:56.177Z,2.00
2023-02-03T00:12:59.123Z,2.50
2023-02-03T00:18:01.972Z,2.83
2023-02-03T00:23:07.253Z,2.10
2023-02-03T00:28:10.109Z,2.70
2023-02-03T00:33:12.961Z,2.03
2023-02-03T00:38:18.442Z,3.37
2023-02-03T00:43:21.316Z,2.40
2023-02-03T00:48:24.099Z,2.37
2023-02-03T00:53:28.187Z,2.00
2023-02-03T00:58:31.273Z,3.43
2023-02-03T01:03:34.232Z,2.20
2023-02-03T01:08:38.409Z,2.30
2023-02-03T01:13:41.764Z,1.87
2023-02-03T01:18:45.135Z,2.23
2023-02-03T01:23:49.356Z,2.10
2023-02-03T01:28:52.759Z,1.73
2023-02-03T01:33:56.297Z,1.97
2023-02-03T01:39:00.672Z,1.70
2023-02-03T01:44:24.103Z,1.83
2023-02-03T01:49:30.697Z,1.83
2023-02-03T01:54:37.648Z,2.10
2023-02-03T01:59:41.200Z,2.10
2023-02-03T02:04:52.318Z,3.00
2023-02-03T02:09:57.421Z,1.43
2023-02-03T02:15:00.428Z,1.97
2023-02-03T02:20:34.795Z,2.67
2023-02-03T02:26:00.956Z,2.30
2023-02-03T02:31:29.955Z,1.97
2023-02-03T02:36:37.616Z,2.03
2023-02-03T02:41:43.728Z,1.77
2023-02-03T02:46:48.598Z,1.73
2023-02-03T02:51:54.407Z,2.73
2023-02-03T02:57:00.914Z,1.70
2023-02-03T03:02:05.857Z,2.47
2023-02-03T03:07:12.708Z,2.30
2023-02-03T03:12:18.329Z,1.60
2023-02-03T03:17:26.329Z,1.80
2023-02-03T03:22:35.642Z,1.70
2023-02-03T03:27:40.638Z,2.20
2023-02-03T03:32:43.570Z,2.00
2023-02-03T03:37:52.512Z,3.70
2023-02-03T03:42:58.279Z,1.80
2023-02-03T03:48:04.634Z,3.17
2023-02-03T03:53:10.880Z,2.10
2023-02-03T03:58:15.856Z,2.37
2023-02-03T04:03:23.250Z,1.90
2023-02-03T04:08:27.404Z,1.63
2023-02-03T04:13:30.211Z,2.60
2023-02-03T04:18:32.919Z,2.83
2023-02-03T04:23:37.058Z,2.73
2023-02-03T04:28:39.917Z,2.63
2023-02-03T04:33:42.747Z,2.93
2023-02-03T04:38:46.860Z,2.03
2023-02-03T04:43:49.809Z,1.90
2023-02-03T04:48:52.545Z,2.60
2023-02-03T04:53:56.640Z,1.90
2023-02-03T04:58:59.433Z,1.80
2023-02-03T05:04:02.211Z,1.90
2023-02-03T05:09:06.622Z,2.20
2023-02-03T05:14:09.427Z,2.67
2023-02-03T05:19:12.212Z,3.70
2023-02-03T05:24:16.361Z,2.27
2023-02-03T05:29:19.141Z,1.70
2023-02-03T05:34:22.051Z,2.20
2023-02-03T05:39:26.143Z,3.20
2023-02-03T05:44:30.364Z,3.00
2023-02-03T05:49:33.128Z,2.30
2023-02-03T05:54:37.300Z,2.73
2023-02-03T05:59:40.070Z,4.10
2023-02-03T06:04:42.879Z,1.73
2023-02-03T06:09:47.455Z,3.17
2023-02-03T06:14:50.230Z,3.23
2023-02-03T06:19:52.977Z,1.97
2023-02-03T06:24:57.152Z,2.43
2023-02-03T06:29:59.884Z,2.43
2023-02-03T06:35:02.661Z,3.40
2023-02-03T06:40:07.993Z,2.30
2023-02-03T06:45:11.396Z,1.93
2023-02-03T06:50:16.736Z,2.93
2023-02-03T06:55:21.030Z,2.93
2023-02-03T07:00:24.400Z,2.67
2023-02-03T07:05:28.266Z,2.43
2023-02-03T07:10:32.446Z,2.70
2023-02-03T07:15:35.672Z,2.77
2023-02-03T07:20:38.614Z,2.73
2023-02-03T07:25:42.924Z,2.70
2023-02-03T07:30:45.856Z,1.97
2023-02-03T07:35:53.034Z,2.73
2023-02-03T07:40:57.462Z,2.43
2023-02-03T07:46:01.789Z,2.00
2023-02-03T07:51:05.010Z,2.53
2023-02-03T07:56:09.184Z,2.47
2023-02-03T08:01:13.523Z,2.73
2023-02-03T08:06:16.374Z,2.03
2023-02-03T08:11:20.647Z,3.07
2023-02-03T08:16:24.794Z,2.10
2023-02-03T08:21:27.678Z,3.13
2023-02-03T08:26:31.899Z,2.63
2023-02-03T08:31:34.966Z,1.63
2023-02-03T08:36:40.042Z,2.63
2023-02-03T08:41:44.349Z,2.33
2023-02-03T08:46:47.271Z,2.90
2023-02-03T08:51:50.261Z,2.40
2023-02-03T08:56:54.905Z,3.47
2023-02-03T09:01:59.796Z,2.77
2023-02-03T09:07:04.333Z,2.27
2023-02-03T09:12:09.035Z,3.67
2023-02-03T09:17:12.063Z,2.50
2023-02-03T09:22:17.461Z,2.47
2023-02-03T09:27:21.874Z,3.57
2023-02-03T09:32:24.740Z,2.80
2023-02-03T09:37:30.617Z,2.13
2023-02-03T09:42:51.275Z,3.20
2023-02-03T09:47:55.490Z,2.30
2023-02-03T09:52:59.885Z,2.63
2023-02-03T09:58:06.806Z,2.40
2023-02-03T10:03:16.835Z,2.00
2023-02-03T10:08:27.285Z,2.10
2023-02-03T10:13:37.209Z,3.33
2023-02-03T10:18:43.150Z,2.20
2023-02-03T10:23:46.764Z,2.90
2023-02-03T10:28:55.841Z,2.93
2023-02-03T10:34:01.988Z,3.37
2023-02-03T10:39:11.732Z,2.90
2023-02-03T10:44:16.482Z,2.33
2023-02-03T10:49:19.527Z,2.17
2023-02-03T10:54:31.992Z,2.23
2023-02-03T10:59:37.676Z,4.23
2023-02-03T11:04:40.565Z,2.57
2023-02-03T11:09:43.823Z,2.10
2023-02-03T11:14:49.818Z,1.80
2023-02-03T11:19:54.127Z,5.27
2023-02-03T11:24:57.507Z,2.23
2023-02-03T11:30:12.602Z,3.40
2023-02-03T11:35:19.398Z,2.40
2023-02-03T11:40:27.896Z,3.20
2023-02-03T11:45:38.960Z,2.80
2023-02-03T11:50:46.596Z,2.60
2023-02-03T11:55:58.257Z,3.67
2023-02-03T12:01:07.290Z,2.30
2023-02-03T12:06:21.792Z,4.20
2023-02-03T12:11:34.495Z,3.80
2023-02-03T12:17:02.657Z,2.60
2023-02-03T12:22:11.409Z,2.60
2023-02-03T12:27:24.077Z,2.80
2023-02-03T12:32:32.597Z,3.20
2023-02-03T12:37:45.347Z,3.40
2023-02-03T12:42:53.261Z,4.17
2023-02-03T12:47:59.969Z,3.67
2023-02-03T12:53:06.514Z,3.50
2023-02-03T12:58:12.718Z,3.13
2023-02-03T13:03:21.449Z,3.40
2023-02-03T13:08:30.603Z,3.57
2023-02-03T13:13:37.156Z,2.80
2023-02-03T13:18:45.047Z,2.57
2023-02-03T13:23:48.417Z,3.30
2023-02-03T13:29:10.025Z,3.10
2023-02-03T13:34:46.983Z,3.27
2023-02-03T13:40:01.449Z,4.10
2023-02-03T13:45:10.279Z,3.50
2023-02-03T13:50:22.816Z,5.37
2023-02-03T13:55:32.493Z,4.30
2023-02-03T14:01:02.318Z,5.80
2023-02-03T14:06:12.046Z,5.03
2023-02-03T14:11:43.655Z,3.40
2023-02-03T14:16:47.843Z,4.53
2023-02-03T14:21:55.095Z,4.70
2023-02-03T14:26:58.783Z,3.10
2023-02-03T14:32:02.993Z,4.47
2023-02-03T14:37:17.188Z,3.83
2023-02-03T14:42:29.951Z,3.40
2023-02-03T14:47:46.233Z,4.10
2023-02-03T14:53:09.214Z,3.80
2023-02-03T14:58:22.800Z,3.90
2023-02-03T15:03:30.285Z,3.20
2023-02-03T15:08:42.147Z,4.27
2023-02-03T15:13:44.943Z,4.03
2023-02-03T15:18:47.795Z,6.53
2023-02-03T15:23:52.695Z,4.53
2023-02-03T15:28:57.026Z,3.83
2023-02-03T15:34:07.950Z,3.73
2023-02-03T15:39:21.638Z,4.10
2023-02-03T15:44:30.336Z,3.50
2023-02-03T15:49:36.097Z,4.27
2023-02-03T15:54:45.627Z,3.30
2023-02-03T15:59:55.048Z,3.63
2023-02-03T16:10:32.022Z,3.93
2023-02-03T16:15:34.992Z,4.00
2023-02-03T16:20:39.836Z,5.40
2023-02-03T16:25:44.047Z,3.67
2023-02-03T16:31:12.550Z,4.33
2023-02-03T16:36:33.083Z,2.87
2023-02-03T16:41:55.394Z,4.27
2023-02-03T16:47:15.728Z,3.73
2023-02-03T16:52:18.604Z,3.70
2023-02-03T16:57:22.770Z,5.17
2023-02-03T17:02:25.700Z,3.50
2023-02-03T17:07:28.596Z,5.33
2023-02-03T17:12:33.589Z,4.30
2023-02-03T17:17:36.439Z,4.77
2023-02-03T17:22:41.799Z,5.80
2023-02-03T17:27:46.190Z,5.13
2023-02-03T17:32:49.135Z,4.10
2023-02-03T17:37:52.956Z,4.30
2023-02-03T17:53:38.772Z,5.53
2023-02-03T17:58:43.346Z,4.60
2023-02-03T18:03:46.601Z,4.60
2023-02-03T18:08:50.197Z,5.03
2023-02-03T18:13:54.806Z,4.13
2023-02-03T18:18:57.945Z,4.77
2023-02-03T18:24:01.911Z,2.97
2023-02-03T18:29:06.700Z,3.83
2023-02-03T18:34:09.484Z,3.63
2023-02-03T18:39:14.243Z,5.23
2023-02-03T18:44:18.428Z,5.40
2023-02-03T18:49:21.216Z,4.07
2023-02-03T18:54:24.015Z,3.77
2023-02-03T18:59:28.086Z,7.20
2023-02-03T19:04:31.173Z,4.23
2023-02-03T19:09:34.697Z,4.43
2023-02-03T19:14:38.836Z,4.23
2023-02-03T19:19:41.722Z,3.17
2023-02-03T19:24:44.580Z,4.00
2023-02-03T19:29:48.877Z,4.57
2023-02-03T19:34:51.813Z,6.53
2023-02-03T19:39:54.667Z,5.50
2023-02-03T19:44:58.833Z,4.70
2023-02-03T19:50:01.709Z,4.70
2023-02-03T19:55:04.901Z,5.20
2023-02-03T20:00:10.900Z,5.83
2023-02-03T20:05:21.700Z,6.10
2023-02-03T20:10:26.334Z,4.73
2023-02-03T20:15:32.035Z,4.83
2023-02-03T20:20:34.969Z,4.37
2023-02-03T20:25:37.820Z,5.00
2023-02-03T20:30:43.908Z,3.77
2023-02-03T20:35:46.774Z,5.53
2023-02-03T20:40:49.840Z,4.40
2023-02-03T20:45:54.217Z,8.13
2023-02-03T20:50:57.090Z,4.33
2023-02-03T20:56:01.845Z,5.30
2023-02-03T21:01:13.108Z,4.77
2023-02-03T21:06:18.257Z,3.87
2023-02-03T21:11:26.535Z,5.07
2023-02-03T21:16:38.604Z,5.50
2023-02-03T21:21:42.829Z,6.90
2023-02-03T21:26:45.706Z,6.97
2023-02-03T21:31:49.931Z,4.27
2023-02-03T21:36:52.771Z,4.23
2023-02-03T21:41:55.955Z,2.83
2023-02-03T21:47:01.340Z,3.33
2023-02-03T21:52:04.424Z,5.57
2023-02-03T21:57:08.751Z,4.30
2023-02-03T22:02:40.600Z,4.70
2023-02-03T22:07:43.571Z,4.13
2023-02-03T22:12:46.393Z,4.80
2023-02-03T22:17:51.039Z,3.63
2023-02-03T22:22:54.328Z,5.57
2023-02-03T22:27:57.138Z,3.13
2023-02-03T22:33:02.130Z,4.30
2023-02-03T22:38:04.960Z,4.53
2023-02-03T22:43:07.893Z,3.47
2023-02-03T22:48:12.129Z,4.70
2023-02-03T22:53:15.643Z,4.30
2023-02-03T22:58:18.491Z,3.33
2023-02-03T23:03:22.706Z,3.53
2023-02-03T23:08:25.580Z,3.50
2023-02-03T23:13:28.830Z,3.93
2023-02-03T23:18:33.101Z,4.43
2023-02-03T23:23:35.907Z,5.20
2023-02-03T23:28:38.756Z,4.03
2023-02-03T23:34:03.989Z,3.53
2023-02-03T23:39:07.382Z,2.80
2023-02-03T23:44:10.925Z,4.40
2023-02-03T23:49:15.144Z,3.33
2023-02-03T23:54:17.937Z,3.53
2023-02-03T23:59:20.823Z,2.73
